Time;durP1;ratioP1;P1;durP2;ratioP2;P2;SDS_P1;SDS_P2;PMS_P1;PMS_P2;Temp;Humidity;BMP_temperature;BMP_pressure;BME280_temperature;BME280_humidity;BME280_pressure;Samples;Min_cycle;Max_cycle;Signal;HPM_P1;HPM_P2
2022/04/27 00:00:30;;;;;;;8.27;5.43;;;9.00;99.90;;;;;;4259124;27;20527;-47
2022/04/27 00:02:31;;;;;;;8.93;5.10;;;9.00;99.90;;;;;;4259851;27;20444;-55
2022/04/27 00:04:34;;;;;;;9.00;4.77;;;8.90;99.90;;;;;;4258889;27;20408;-53
2022/04/27 00:06:35;;;;;;;9.43;4.20;;;9.00;99.90;;;;;;4268663;27;20056;-50
2022/04/27 00:08:38;;;;;;;6.03;4.20;;;8.90;99.90;;;;;;4274027;27;20106;-52
2022/04/27 00:10:39;;;;;;;6.37;4.40;;;9.00;99.90;;;;;;4273158;27;20095;-49
2022/04/27 00:12:40;;;;;;;6.83;4.50;;;9.00;99.90;;;;;;4274594;27;20030;-53
2022/04/27 00:14:41;;;;;;;6.73;4.80;;;9.00;99.90;;;;;;4275326;27;20396;-53
2022/04/27 00:16:42;;;;;;;8.83;5.20;;;9.00;99.90;;;;;;4264520;27;20083;-50
2022/04/27 00:18:43;;;;;;;7.00;4.47;;;9.00;99.90;;;;;;4258237;27;20019;-57
2022/04/27 00:20:44;;;;;;;5.33;3.83;;;9.00;99.90;;;;;;4260088;27;20143;-51
2022/04/27 00:22:46;;;;;;;5.30;3.70;;;9.00;99.90;;;;;;4271811;27;20022;-50
2022/04/27 00:24:47;;;;;;;7.17;3.80;;;9.00;99.90;;;;;;4259977;27;20034;-49
2022/04/27 00:26:48;;;;;;;5.23;3.43;;;9.00;99.90;;;;;;4260161;27;20474;-53
2022/04/27 00:28:49;;;;;;;8.00;3.30;;;9.10;99.90;;;;;;4271141;27;20030;-48
2022/04/27 00:30:50;;;;;;;3.87;3.40;;;9.10;99.90;;;;;;4260969;27;20567;-60
2022/04/27 00:32:51;;;;;;;3.83;3.20;;;9.10;99.90;;;;;;4271325;27;20050;-53
2022/04/27 00:34:52;;;;;;;4.13;3.23;;;9.20;99.90;;;;;;4268766;27;20090;-53
2022/04/27 00:36:54;;;;;;;5.00;3.30;;;9.20;99.90;;;;;;4273835;27;20018;-60
2022/04/27 00:38:55;;;;;;;4.70;3.17;;;9.20;99.90;;;;;;4266751;27;20030;-51
2022/04/27 00:40:56;;;;;;;4.83;3.10;;;9.30;99.90;;;;;;4258199;27;20031;-52
2022/04/27 00:42:57;;;;;;;8.07;3.20;;;9.30;99.90;;;;;;4259295;27;20035;-47
2022/04/27 00:44:58;;;;;;;5.03;3.73;;;9.30;99.90;;;;;;4258532;27;20391;-50
2022/04/27 00:47:01;;;;;;;5.77;4.10;;;9.20;99.90;;;;;;4258740;27;20083;-49
2022/04/27 00:49:02;;;;;;;5.13;3.57;;;9.20;99.90;;;;;;4258054;27;20080;-51
2022/04/27 00:51:03;;;;;;;5.83;4.27;;;9.20;99.90;;;;;;4275210;27;20067;-52
2022/04/27 00:53:05;;;;;;;11.07;5.03;;;9.20;99.90;;;;;;4274409;27;20034;-48
2022/04/27 00:55:06;;;;;;;6.20;4.37;;;9.10;99.90;;;;;;4259266;27;20054;-54
2022/04/27 00:57:08;;;;;;;6.27;4.30;;;9.00;99.90;;;;;;4272418;27;20042;-53
2022/04/27 00:59:09;;;;;;;8.07;3.57;;;9.00;99.90;;;;;;4258441;27;20034;-53
2022/04/27 01:01:11;;;;;;;6.00;3.10;;;8.90;99.90;;;;;;4256846;27;20091;-55
2022/04/27 01:03:12;;;;;;;5.97;3.60;;;9.00;99.90;;;;;;4258809;27;20042;-54
2022/04/27 01:05:13;;;;;;;4.77;3.43;;;9.00;99.90;;;;;;4271501;27;20086;-53
2022/04/27 01:07:14;;;;;;;5.17;3.27;;;9.00;99.90;;;;;;4259205;27;20050;-53
2022/04/27 01:09:18;;;;;;;4.40;3.03;;;9.00;99.90;;;;;;4266676;27;20075;-56
2022/04/27 01:11:19;;;;;;;4.47;2.83;;;9.10;99.90;;;;;;4273498;27;20236;-58
2022/04/27 01:13:20;;;;;;;6.53;3.33;;;9.10;99.90;;;;;;4275302;27;20078;-52
2022/04/27 01:15:36;;;;;;;4.50;2.83;;;9.00;99.90;;;;;;4274725;27;20064;-51
2022/04/27 01:17:37;;;;;;;5.47;3.13;;;9.10;99.90;;;;;;4275386;27;20079;-53
2022/04/27 01:19:38;;;;;;;6.43;2.80;;;9.10;99.90;;;;;;4273002;27;20026;-52
2022/04/27 01:21:39;;;;;;;4.07;2.47;;;9.10;99.90;;;;;;4268758;27;20034;-55
2022/04/27 01:23:40;;;;;;;3.57;3.03;;;9.10;99.90;;;;;;4260076;27;20039;-53
2022/04/27 01:25:54;;;;;;;3.73;2.30;;;9.10;99.90;;;;;;4274222;27;20099;-54
2022/04/27 01:27:55;;;;;;;4.63;2.80;;;9.10;99.90;;;;;;4268299;27;20043;-57
2022/04/27 01:29:56;;;;;;;6.50;3.97;;;9.10;99.90;;;;;;4268535;27;20038;-59
2022/04/27 01:32:00;;;;;;;3.30;2.67;;;9.20;99.90;;;;;;4263373;27;20048;-52
2022/04/27 01:34:01;;;;;;;3.57;2.63;;;9.10;99.90;;;;;;4257709;27;20034;-51
2022/04/27 01:36:07;;;;;;;4.23;2.60;;;9.10;99.90;;;;;;4256279;27;20098;-53
2022/04/27 01:38:08;;;;;;;3.77;2.50;;;9.20;99.90;;;;;;4259350;27;20051;-52
2022/04/27 01:40:10;;;;;;;4.93;3.10;;;9.20;99.90;;;;;;4259811;27;20038;-50
2022/04/27 01:42:11;;;;;;;3.93;2.80;;;9.20;99.90;;;;;;4274816;27;20026;-56
2022/04/27 01:44:12;;;;;;;3.20;2.83;;;9.20;99.90;;;;;;4262014;27;20019;-64
2022/04/27 01:46:13;;;;;;;9.37;2.73;;;9.20;99.90;;;;;;4258545;27;20035;-52
2022/04/27 01:48:14;;;;;;;3.70;2.90;;;9.10;99.90;;;;;;4256740;27;20043;-54
2022/04/27 01:50:16;;;;;;;6.67;2.93;;;9.10;99.90;;;;;;4271536;27;20054;-53
2022/04/27 01:54:36;;;;;;;6.33;3.83;;;9.10;99.90;;;;;;4273962;27;20034;-50
2022/04/27 01:56:38;;;;;;;7.80;4.10;;;9.00;99.90;;;;;;4258008;27;20123;-51
2022/04/27 01:58:39;;;;;;;5.97;3.33;;;9.00;99.90;;;;;;4271850;27;20082;-56
2022/04/27 02:00:40;;;;;;;8.67;4.00;;;8.90;99.90;;;;;;4272903;27;20091;-52
2022/04/27 02:02:41;;;;;;;5.70;3.77;;;8.90;99.90;;;;;;4255722;27;20095;-55
2022/04/27 02:04:43;;;;;;;4.40;3.10;;;8.80;99.90;;;;;;4274065;27;20038;-55
2022/04/27 02:06:44;;;;;;;3.70;2.67;;;8.80;99.90;;;;;;4273956;27;20089;-54
2022/04/27 02:08:46;;;;;;;3.70;2.70;;;8.80;99.90;;;;;;4275656;27;20030;-53
2022/04/27 02:10:47;;;;;;;5.53;2.23;;;8.80;99.90;;;;;;4265069;27;21789;-49
2022/04/27 02:12:49;;;;;;;3.00;2.50;;;8.70;99.90;;;;;;4274109;27;20050;-54
2022/04/27 02:14:50;;;;;;;4.00;2.60;;;8.80;99.90;;;;;;4273885;27;20438;-60
2022/04/27 02:16:51;;;;;;;5.77;2.93;;;8.80;99.90;;;;;;4272135;27;20390;-56
2022/04/27 02:18:55;;;;;;;6.10;2.50;;;8.80;99.90;;;;;;4275293;27;20133;-57
2022/04/27 02:20:56;;;;;;;4.40;2.70;;;8.80;99.90;;;;;;4274246;27;20506;-49
2022/04/27 02:22:58;;;;;;;7.97;2.57;;;8.80;99.90;;;;;;4262394;27;20076;-51
2022/04/27 02:24:59;;;;;;;4.07;2.30;;;8.90;99.90;;;;;;4273902;27;20067;-57
2022/04/27 02:27:01;;;;;;;4.37;3.03;;;8.90;99.90;;;;;;4261625;27;20076;-54
2022/04/27 02:29:02;;;;;;;7.23;2.93;;;8.90;99.90;;;;;;4260313;27;20150;-68
2022/04/27 02:31:04;;;;;;;4.33;2.73;;;8.90;99.90;;;;;;4260980;27;20030;-51
2022/04/27 02:33:05;;;;;;;3.40;2.30;;;8.90;99.90;;;;;;4259573;27;20030;-51
2022/04/27 02:35:07;;;;;;;2.77;2.30;;;8.90;99.90;;;;;;4260840;27;20031;-52
2022/04/27 02:37:08;;;;;;;4.57;2.50;;;8.90;99.90;;;;;;4261187;27;20054;-54
2022/04/27 02:39:10;;;;;;;3.93;2.07;;;8.90;99.90;;;;;;4261031;27;20030;-61
2022/04/27 02:41:11;;;;;;;5.40;3.10;;;8.90;99.90;;;;;;4260207;27;20030;-53
2022/04/27 02:43:12;;;;;;;4.07;2.63;;;9.00;99.90;;;;;;4259924;27;20171;-52
2022/04/27 02:45:13;;;;;;;4.83;2.80;;;9.00;99.90;;;;;;4258917;27;20042;-54
2022/04/27 02:47:14;;;;;;;8.80;3.27;;;9.00;99.90;;;;;;4260559;27;20030;-53
2022/04/27 02:51:53;;;;;;;5.27;3.20;;;8.90;99.90;;;;;;4261344;27;20046;-53
2022/04/27 02:53:54;;;;;;;6.20;2.97;;;8.90;99.90;;;;;;4261126;27;20097;-56
2022/04/27 02:55:56;;;;;;;4.53;2.67;;;8.90;99.90;;;;;;4273403;27;20030;-58
2022/04/27 02:57:57;;;;;;;7.37;3.27;;;8.90;99.90;;;;;;4271100;27;20079;-55
2022/04/27 02:59:58;;;;;;;4.60;2.60;;;8.90;99.90;;;;;;4260418;27;20035;-52
2022/04/27 03:02:00;;;;;;;4.27;2.70;;;8.80;99.90;;;;;;4271976;27;20071;-54
2022/04/27 03:04:01;;;;;;;6.07;2.80;;;8.90;99.90;;;;;;4276020;27;20038;-55
2022/04/27 03:06:02;;;;;;;3.60;2.87;;;8.90;99.90;;;;;;4274203;27;20083;-53
2022/04/27 03:08:04;;;;;;;4.37;2.93;;;8.90;99.90;;;;;;4274580;27;20075;-57
2022/04/27 03:10:06;;;;;;;6.63;2.63;;;8.90;99.90;;;;;;4274704;27;20058;-56
2022/04/27 03:12:07;;;;;;;4.73;3.20;;;8.90;99.90;;;;;;4272542;27;20094;-50
2022/04/27 03:14:09;;;;;;;5.00;3.23;;;9.00;99.90;;;;;;4274793;27;20030;-55
2022/04/27 03:16:10;;;;;;;4.77;2.80;;;9.00;99.90;;;;;;4274290;27;20465;-49
2022/04/27 03:18:17;;;;;;;3.50;2.50;;;9.00;99.90;;;;;;4274578;27;20570;-52
2022/04/27 03:20:18;;;;;;;3.87;2.90;;;9.00;99.90;;;;;;4255262;27;20038;-53
2022/04/27 03:22:19;;;;;;;5.40;2.70;;;9.00;99.90;;;;;;4271479;27;20035;-47
2022/04/27 03:24:20;;;;;;;8.37;3.70;;;9.00;99.90;;;;;;4262457;27;20089;-56
2022/04/27 03:26:21;;;;;;;6.67;3.67;;;9.00;99.90;;;;;;4271076;27;20027;-63
2022/04/27 03:28:23;;;;;;;7.13;3.77;;;8.90;99.90;;;;;;4258761;27;20046;-53
2022/04/27 03:30:24;;;;;;;5.87;3.40;;;8.90;99.90;;;;;;4259523;27;20079;-51
2022/04/27 03:32:25;;;;;;;13.07;4.13;;;8.90;99.90;;;;;;4260088;27;20095;-51
2022/04/27 03:34:26;;;;;;;9.60;3.97;;;8.90;99.90;;;;;;4259721;27;20095;-52
2022/04/27 03:36:27;;;;;;;10.87;4.93;;;8.80;99.90;;;;;;4258974;27;20035;-51
2022/04/27 03:38:28;;;;;;;5.13;3.80;;;8.80;99.90;;;;;;4258858;27;20114;-49
2022/04/27 03:40:30;;;;;;;8.87;3.70;;;8.80;99.90;;;;;;4261390;27;20038;-54
2022/04/27 03:42:31;;;;;;;8.93;3.60;;;8.80;99.90;;;;;;4259173;27;20404;-53
2022/04/27 03:44:32;;;;;;;4.93;2.90;;;8.90;99.90;;;;;;4277353;27;20075;-53
2022/04/27 03:46:35;;;;;;;8.80;4.10;;;8.90;99.90;;;;;;4263491;27;20102;-52
2022/04/27 03:48:36;;;;;;;16.30;4.53;;;8.90;99.90;;;;;;4259648;27;20079;-55
2022/04/27 03:50:37;;;;;;;12.20;5.00;;;8.90;99.90;;;;;;4271337;27;20086;-60
2022/04/27 03:52:38;;;;;;;11.70;4.60;;;8.80;99.90;;;;;;4260769;27;20107;-55
2022/04/27 03:54:39;;;;;;;11.87;5.07;;;8.80;99.90;;;;;;4257893;27;20034;-52
2022/04/27 03:56:42;;;;;;;15.07;4.40;;;8.80;99.90;;;;;;4260447;27;20047;-56
2022/04/27 03:58:43;;;;;;;18.27;6.00;;;8.80;99.90;;;;;;4259652;27;20420;-54
2022/04/27 04:00:44;;;;;;;12.40;6.07;;;8.80;99.90;;;;;;4266595;27;20034;-53
2022/04/27 04:02:45;;;;;;;12.97;5.33;;;8.70;99.90;;;;;;4258577;27;20042;-63
2022/04/27 04:04:47;;;;;;;10.80;5.93;;;8.70;99.90;;;;;;4259443;27;20436;-61
2022/04/27 04:06:48;;;;;;;9.97;5.73;;;8.70;99.90;;;;;;4259241;27;20031;-51
2022/04/27 04:08:49;;;;;;;10.00;5.13;;;8.80;99.90;;;;;;4259958;27;20038;-53
2022/04/27 04:10:50;;;;;;;14.70;5.60;;;9.20;99.90;;;;;;4261178;27;20042;-65
2022/04/27 04:12:51;;;;;;;8.57;5.87;;;9.80;99.90;;;;;;4263808;27;20022;-50
2022/04/27 04:14:53;;;;;;;9.30;5.40;;;10.60;99.90;;;;;;4274442;27;20045;-52
2022/04/27 04:16:54;;;;;;;13.80;6.17;;;11.10;99.90;;;;;;4263593;27;20062;-52
2022/04/27 04:18:55;;;;;;;11.63;6.20;;;11.50;99.90;;;;;;4258849;27;20492;-57
2022/04/27 04:20:56;;;;;;;12.30;5.20;;;12.00;99.90;;;;;;4239568;27;20914;-52
2022/04/27 04:22:57;;;;;;;17.40;5.30;;;12.40;99.90;;;;;;4274445;27;20091;-59
2022/04/27 04:29:38;;;;;;;10.93;4.63;;;12.40;99.90;;;;;;4247508;27;20083;-52
2022/04/27 04:31:39;;;;;;;9.50;4.90;;;12.30;99.90;;;;;;4273537;27;20125;-52
2022/04/27 04:33:40;;;;;;;7.03;4.53;;;12.40;99.90;;;;;;4253151;27;20066;-58
2022/04/27 04:35:41;;;;;;;5.90;4.60;;;12.40;99.90;;;;;;4275075;27;20042;-64
2022/04/27 04:37:42;;;;;;;7.70;4.57;;;12.80;99.90;;;;;;4274152;27;20478;-53
2022/04/27 04:39:43;;;;;;;9.77;4.97;;;13.50;99.90;;;;;;4261353;27;20538;-60
2022/04/27 04:41:45;;;;;;;9.83;4.90;;;13.90;99.90;;;;;;4253509;27;20035;-66
2022/04/27 04:43:46;;;;;;;9.47;5.03;;;14.10;99.90;;;;;;4241120;27;20027;-56
2022/04/27 04:45:47;;;;;;;7.00;4.27;;;14.00;99.90;;;;;;4223318;27;20089;-50
2022/04/27 04:47:48;;;;;;;13.87;5.17;;;14.00;99.90;;;;;;4251154;27;20725;-60
2022/04/27 04:49:49;;;;;;;10.47;5.47;;;13.90;99.90;;;;;;4258307;27;20046;-63
2022/04/27 04:51:51;;;;;;;15.50;6.03;;;13.60;99.90;;;;;;4254551;27;20050;-59
2022/04/27 04:53:52;;;;;;;7.40;4.47;;;13.60;99.90;;;;;;4251434;27;20096;-61
2022/04/27 04:55:53;;;;;;;9.50;4.40;;;13.40;99.90;;;;;;4240466;27;20080;-52
2022/04/27 04:57:55;;;;;;;8.37;4.33;;;13.20;99.90;;;;;;4243369;27;20018;-53
2022/04/27 04:59:56;;;;;;;9.47;5.73;;;13.20;99.90;;;;;;4256623;27;20063;-55
2022/04/27 05:01:57;;;;;;;11.40;5.53;;;13.10;99.90;;;;;;4256328;27;20431;-57
2022/04/27 05:03:58;;;;;;;10.77;5.47;;;13.20;99.90;;;;;;4253657;27;20830;-65
2022/04/27 05:06:00;;;;;;;10.43;4.90;;;13.70;99.90;;;;;;4255429;27;20143;-54
2022/04/27 05:08:02;;;;;;;12.03;5.00;;;14.20;99.90;;;;;;4248238;27;20186;-54
2022/04/27 05:10:04;;;;;;;7.37;4.63;;;14.70;99.90;;;;;;4250234;27;20042;-65
2022/04/27 05:12:06;;;;;;;10.80;4.70;;;15.20;99.90;;;;;;4256711;27;20051;-62
2022/04/27 05:14:07;;;;;;;10.50;4.40;;;15.50;99.90;;;;;;4260881;27;20034;-52
2022/04/27 05:16:08;;;;;;;10.87;4.30;;;15.60;99.90;;;;;;4271795;27;20079;-59
2022/04/27 05:18:09;;;;;;;5.77;3.97;;;15.60;99.90;;;;;;4273794;27;20030;-64
2022/04/27 05:20:11;;;;;;;6.63;3.80;;;15.40;99.90;;;;;;4243458;27;20027;-54
2022/04/27 05:22:12;;;;;;;4.30;3.10;;;15.30;99.90;;;;;;4267675;27;20038;-65
2022/04/27 05:24:13;;;;;;;9.87;3.43;;;15.10;99.90;;;;;;4275249;27;20022;-54
2022/04/27 05:26:15;;;;;;;5.07;4.10;;;14.90;99.90;;;;;;4271535;27;20080;-56
2022/04/27 05:28:16;;;;;;;6.93;2.97;;;14.60;99.90;;;;;;4275029;27;20047;-59
2022/04/27 05:32:44;;;;;;;6.68;3.40;;;14.40;99.90;;;;;;4243444;27;20051;-51
2022/04/27 05:34:45;;;;;;;10.80;4.67;;;15.00;99.90;;;;;;4239338;27;20087;-60
2022/04/27 05:36:47;;;;;;;8.70;4.10;;;15.40;99.90;;;;;;4258956;27;20059;-62
2022/04/27 05:38:49;;;;;;;8.33;4.67;;;15.40;99.90;;;;;;4257539;27;20100;-50
2022/04/27 05:40:50;;;;;;;6.47;4.00;;;15.20;99.90;;;;;;4273400;27;20494;-57
2022/04/27 05:42:51;;;;;;;5.27;4.00;;;15.40;99.90;;;;;;4266590;27;20087;-51
2022/04/27 05:44:52;;;;;;;10.07;4.10;;;15.50;99.90;;;;;;4257850;27;20050;-56
2022/04/27 05:46:55;;;;;;;9.33;4.70;;;15.60;99.90;;;;;;4266719;27;20051;-56
2022/04/27 05:48:56;;;;;;;8.10;5.05;;;16.00;99.90;;;;;;4274047;27;20087;-58
2022/04/27 05:50:57;;;;;;;8.30;4.10;;;16.00;99.90;;;;;;4257589;27;20043;-56
2022/04/27 05:53:00;;;;;;;13.98;4.72;;;16.20;99.90;;;;;;4257232;27;20039;-55
2022/04/27 05:55:01;;;;;;;11.55;4.93;;;16.50;99.90;;;;;;4244617;27;20969;-55
2022/04/27 05:57:02;;;;;;;12.15;4.97;;;16.30;99.90;;;;;;4263408;27;20507;-60
2022/04/27 05:59:03;;;;;;;8.50;4.50;;;16.60;99.90;;;;;;4275968;27;20067;-62
2022/04/27 06:01:04;;;;;;;11.77;5.00;;;17.10;99.90;;;;;;4277671;27;20522;-58
2022/04/27 06:03:06;;;;;;;10.93;4.95;;;16.70;99.90;;;;;;4269701;27;20144;-60
2022/04/27 06:05:08;;;;;;;14.43;5.22;;;16.60;99.90;;;;;;4274050;27;20371;-58
2022/04/27 06:07:09;;;;;;;7.18;4.32;;;16.20;99.90;;;;;;4263495;27;20082;-60
2022/04/27 06:09:10;;;;;;;11.45;4.53;;;16.30;99.90;;;;;;4274086;27;20034;-57
2022/04/27 06:11:12;;;;;;;19.77;5.85;;;16.60;99.90;;;;;;4270014;27;20050;-62
2022/04/27 06:13:13;;;;;;;8.75;4.50;;;16.80;99.90;;;;;;4275506;27;20046;-56
2022/04/27 06:15:15;;;;;;;9.23;4.40;;;16.90;99.90;;;;;;4279584;27;20115;-66
2022/04/27 06:17:17;;;;;;;8.50;4.03;;;17.40;99.90;;;;;;4278144;27;20026;-66
2022/04/27 06:19:18;;;;;;;6.55;3.40;;;17.90;99.90;;;;;;4274167;27;20630;-62
2022/04/27 06:21:20;;;;;;;15.70;4.35;;;18.10;99.40;;;;;;4275525;27;20042;-55
2022/04/27 06:23:21;;;;;;;6.70;3.00;;;18.50;98.90;;;;;;4268346;27;20035;-56
2022/04/27 06:25:25;;;;;;;13.00;3.75;;;18.30;97.90;;;;;;4261817;27;20083;-59
2022/04/27 06:27:26;;;;;;;5.28;3.38;;;17.70;97.80;;;;;;4269860;27;20087;-68
2022/04/27 06:29:27;;;;;;;4.03;3.15;;;18.00;98.10;;;;;;4262389;27;20049;-69
2022/04/27 06:31:30;;;;;;;13.18;3.17;;;18.30;97.80;;;;;;4263517;27;20058;-66
2022/04/27 06:33:32;;;;;;;7.07;3.70;;;18.30;97.10;;;;;;4262964;27;20056;-67
2022/04/27 06:35:33;;;;;;;10.40;5.00;;;18.20;97.10;;;;;;4272821;27;20078;-57
2022/04/27 06:37:34;;;;;;;9.98;4.13;;;17.80;97.10;;;;;;4271351;27;20034;-54
2022/04/27 06:39:38;;;;;;;5.32;3.15;;;17.10;97.90;;;;;;4261306;27;20046;-60
2022/04/27 06:41:39;;;;;;;12.23;3.97;;;17.20;98.50;;;;;;4264057;27;20115;-59
2022/04/27 06:43:40;;;;;;;6.43;3.88;;;17.30;98.50;;;;;;4269241;27;20419;-54
2022/04/27 06:45:41;;;;;;;4.50;2.90;;;17.40;98.30;;;;;;4255133;27;20076;-63
2022/04/27 06:47:42;;;;;;;2.42;2.22;;;17.30;98.20;;;;;;4262599;27;20412;-57
2022/04/27 06:49:44;;;;;;;3.70;2.92;;;17.30;98.30;;;;;;4261621;27;20064;-54
2022/04/27 06:51:45;;;;;;;8.55;3.60;;;17.30;98.40;;;;;;4267509;27;20605;-59
2022/04/27 06:53:47;;;;;;;3.50;2.58;;;17.30;98.60;;;;;;4262316;27;20087;-58
2022/04/27 06:55:50;;;;;;;5.28;2.15;;;17.30;98.60;;;;;;4261853;27;20602;-60
2022/04/27 06:57:51;;;;;;;4.07;2.50;;;17.20;98.80;;;;;;4262494;27;20072;-60
2022/04/27 06:59:52;;;;;;;3.92;2.70;;;16.90;99.20;;;;;;4271025;27;20086;-67
2022/04/27 07:01:54;;;;;;;3.35;2.50;;;16.90;99.50;;;;;;4276920;27;20130;-57
2022/04/27 07:03:56;;;;;;;4.55;2.40;;;16.90;99.60;;;;;;4280135;27;20074;-55
2022/04/27 07:05:58;;;;;;;3.70;2.83;;;16.70;99.90;;;;;;4259190;27;20050;-63
2022/04/27 07:07:59;;;;;;;5.10;3.10;;;16.60;99.90;;;;;;4272799;27;20043;-57
2022/04/27 07:10:01;;;;;;;8.57;2.60;;;16.60;99.90;;;;;;4264658;27;20388;-57
2022/04/27 07:12:03;;;;;;;4.63;3.15;;;16.50;99.90;;;;;;4259573;27;20084;-55
2022/04/27 07:14:04;;;;;;;7.80;3.60;;;16.30;99.90;;;;;;4258482;27;20798;-55
2022/04/27 07:16:05;;;;;;;3.50;2.75;;;16.20;99.90;;;;;;4259846;27;20467;-64
2022/04/27 07:18:06;;;;;;;5.57;3.35;;;16.00;99.90;;;;;;4257572;27;20560;-63
2022/04/27 07:20:10;;;;;;;6.72;3.40;;;16.00;99.90;;;;;;4259525;27;20046;-50
2022/04/27 07:22:12;;;;;;;8.27;4.00;;;16.00;99.90;;;;;;4257535;27;20088;-59
2022/04/27 07:24:13;;;;;;;4.57;3.47;;;15.80;99.90;;;;;;4263882;27;20054;-64
2022/04/27 07:26:14;;;;;;;5.47;3.67;;;16.10;99.90;;;;;;4260499;27;20019;-50
2022/04/27 07:28:16;;;;;;;6.57;3.38;;;15.90;99.90;;;;;;4259598;27;20030;-55
2022/04/27 07:30:17;;;;;;;5.03;3.63;;;15.80;99.90;;;;;;4256602;27;20031;-57
2022/04/27 07:32:18;;;;;;;4.15;3.33;;;15.80;99.90;;;;;;4257132;27;20050;-54
2022/04/27 07:34:19;;;;;;;3.50;3.20;;;15.60;99.90;;;;;;4258316;27;20085;-62
2022/04/27 07:36:20;;;;;;;6.40;3.50;;;15.60;99.90;;;;;;4258648;27;20027;-68
2022/04/27 07:38:21;;;;;;;4.22;3.42;;;15.50;99.90;;;;;;4261618;27;20038;-53
2022/04/27 07:40:23;;;;;;;4.65;3.35;;;15.30;99.90;;;;;;4272304;27;20389;-49
2022/04/27 07:42:24;;;;;;;6.82;3.67;;;15.30;99.90;;;;;;4258373;27;20506;-61
2022/04/27 07:44:25;;;;;;;6.22;3.95;;;15.30;99.90;;;;;;4258209;27;20424;-65
2022/04/27 07:46:26;;;;;;;5.20;4.40;;;15.30;99.90;;;;;;4258242;27;20047;-54
2022/04/27 07:48:32;;;;;;;7.22;4.47;;;15.30;99.90;;;;;;4258334;27;20034;-54
2022/04/27 07:50:33;;;;;;;8.57;4.82;;;15.10;99.90;;;;;;4258640;27;20464;-58
2022/04/27 07:52:34;;;;;;;7.00;4.80;;;15.10;99.90;;;;;;4258498;27;20046;-60
2022/04/27 07:54:35;;;;;;;7.77;4.37;;;15.00;99.90;;;;;;4266439;27;20099;-55
2022/04/27 07:56:37;;;;;;;6.63;5.35;;;15.00;99.90;;;;;;4257700;27;20812;-53
2022/04/27 07:58:38;;;;;;;7.47;4.73;;;15.10;99.90;;;;;;4258532;27;20095;-68
2022/04/27 08:00:39;;;;;;;7.17;4.63;;;15.00;99.90;;;;;;4251225;27;20462;-50
2022/04/27 08:02:41;;;;;;;8.40;4.50;;;15.00;99.90;;;;;;4257986;27;20388;-53
2022/04/27 08:04:42;;;;;;;11.67;6.40;;;15.20;99.90;;;;;;4239483;27;20068;-52
2022/04/27 08:06:43;;;;;;;13.20;6.97;;;15.30;99.90;;;;;;4241305;27;20096;-50
2022/04/27 08:08:44;;;;;;;6.87;4.87;;;15.60;99.90;;;;;;4222396;28;20096;-50
2022/04/27 08:10:46;;;;;;;10.98;5.82;;;15.90;99.90;;;;;;4241131;27;20077;-53
2022/04/27 08:12:49;;;;;;;8.43;4.95;;;16.20;99.90;;;;;;4240044;27;20459;-62
2022/04/27 08:14:51;;;;;;;8.25;4.70;;;16.40;99.90;;;;;;4251213;27;20046;-50
2022/04/27 08:16:53;;;;;;;10.38;4.57;;;16.40;99.90;;;;;;4264878;27;20038;-58
2022/04/27 08:18:54;;;;;;;4.25;3.38;;;16.50;99.90;;;;;;4261434;27;20095;-63
2022/04/27 08:23:16;;;;;;;5.00;3.50;;;16.50;99.90;;;;;;4257901;27;20027;-66
2022/04/27 08:25:17;;;;;;;6.05;3.78;;;16.60;99.90;;;;;;4257547;27;20027;-53
2022/04/27 08:27:18;;;;;;;5.55;3.20;;;16.60;99.90;;;;;;4255906;27;20038;-59
2022/04/27 08:29:19;;;;;;;3.47;3.13;;;16.60;99.90;;;;;;4258531;27;20079;-63
2022/04/27 08:31:21;;;;;;;3.35;2.85;;;16.60;99.90;;;;;;4256256;27;20478;-68
2022/04/27 08:33:22;;;;;;;4.45;2.35;;;16.60;99.90;;;;;;4258196;27;20075;-50
2022/04/27 08:35:23;;;;;;;3.63;2.65;;;16.70;99.90;;;;;;4256645;27;20509;-69
2022/04/27 08:37:24;;;;;;;5.18;2.67;;;16.70;99.90;;;;;;4253005;27;20031;-63
2022/04/27 08:39:25;;;;;;;3.33;2.08;;;16.90;99.90;;;;;;4240130;27;20031;-64
2022/04/27 08:41:28;;;;;;;3.53;2.90;;;17.00;99.90;;;;;;4261405;27;20027;-62
2022/04/27 08:43:30;;;;;;;4.82;3.03;;;16.90;99.90;;;;;;4274588;27;20034;-59
2022/04/27 08:45:32;;;;;;;4.65;2.83;;;16.90;99.90;;;;;;4261482;27;20557;-59
2022/04/27 08:47:34;;;;;;;5.15;3.42;;;16.80;99.90;;;;;;4257256;27;20047;-68
2022/04/27 08:49:35;;;;;;;4.47;3.47;;;16.70;99.90;;;;;;4256668;27;20050;-68
2022/04/27 08:51:39;;;;;;;4.88;3.55;;;16.70;99.90;;;;;;4256888;27;20039;-64
2022/04/27 08:53:42;;;;;;;5.47;3.78;;;16.50;99.90;;;;;;4255957;27;20393;-56
2022/04/27 08:55:44;;;;;;;4.72;3.00;;;16.30;99.90;;;;;;4257718;27;20039;-52
2022/04/27 08:57:48;;;;;;;6.63;3.42;;;16.20;99.90;;;;;;4255834;27;20519;-63
2022/04/27 08:59:49;;;;;;;4.82;2.78;;;16.20;99.90;;;;;;4256334;27;20031;-58
2022/04/27 09:01:50;;;;;;;9.38;3.67;;;16.20;99.90;;;;;;4257216;27;20042;-61
2022/04/27 09:03:51;;;;;;;5.00;3.42;;;16.20;99.90;;;;;;4274445;27;20038;-56
2022/04/27 09:05:55;;;;;;;4.82;3.38;;;16.10;99.90;;;;;;4273846;27;20083;-61
2022/04/27 09:07:57;;;;;;;5.20;2.88;;;16.00;99.90;;;;;;4275122;27;20034;-65
2022/04/27 09:09:58;;;;;;;5.20;2.75;;;16.00;99.90;;;;;;4275149;27;20026;-59
2022/04/27 09:12:06;;;;;;;3.72;1.92;;;16.00;99.90;;;;;;4274157;27;20518;-54
2022/04/27 09:14:07;;;;;;;1.98;1.80;;;16.00;99.90;;;;;;4273580;27;20058;-63
2022/04/27 09:16:10;;;;;;;3.25;1.77;;;16.00;99.90;;;;;;4273305;27;20042;-54
2022/04/27 09:22:51;;;;;;;4.13;2.00;;;16.10;99.90;;;;;;4273666;27;20099;-53
2022/04/27 09:24:53;;;;;;;2.25;1.75;;;15.90;99.90;;;;;;4273945;27;20034;-52
2022/04/27 09:27:00;;;;;;;5.72;3.25;;;15.80;99.90;;;;;;4274119;27;20078;-67
2022/04/27 09:29:03;;;;;;;6.10;2.38;;;15.80;99.90;;;;;;4273101;27;20022;-63
2022/04/27 09:31:04;;;;;;;4.05;2.72;;;15.70;99.90;;;;;;4273948;27;20110;-69
2022/04/27 09:33:05;;;;;;;3.22;2.65;;;15.40;99.90;;;;;;4273648;27;20085;-53
2022/04/27 09:35:09;;;;;;;5.10;3.10;;;14.60;99.90;;;;;;4264624;27;20046;-52
2022/04/27 09:37:21;;;;;;;4.82;1.25;;;13.70;99.90;;;;;;4255032;27;20047;-56
2022/04/27 09:39:25;;;;;;;3.57;1.50;;;13.10;99.90;;;;;;4267657;27;20105;-55
2022/04/27 09:41:38;;;;;;;1.70;0.90;;;12.80;99.90;;;;;;4253177;27;20056;-52
2022/04/27 09:43:49;;;;;;;1.93;1.10;;;12.90;99.90;;;;;;4250859;27;20085;-58
2022/04/27 09:45:50;;;;;;;;;;;13.10;99.90;;;;;;4265923;27;20095;-56
2022/04/27 09:48:03;;;;;;;1.40;1.03;;;13.30;99.90;;;;;;4267539;27;20315;-65
2022/04/27 09:50:05;;;;;;;1.73;1.00;;;13.50;99.90;;;;;;4247441;27;20038;-66
2022/04/27 09:52:07;;;;;;;1.73;0.93;;;13.80;99.90;;;;;;4269880;27;20055;-68
2022/04/27 09:54:09;;;;;;;3.27;0.97;;;14.10;99.90;;;;;;4273065;27;20030;-60
2022/04/27 09:56:14;;;;;;;1.40;0.93;;;14.40;99.90;;;;;;4273268;27;20078;-68
2022/04/27 09:58:18;;;;;;;1.93;1.20;;;14.80;99.90;;;;;;4273810;27;20439;-64
2022/04/27 10:00:22;;;;;;;1.40;1.03;;;14.90;99.90;;;;;;4273005;27;20555;-68
2022/04/27 10:02:29;;;;;;;3.60;1.47;;;15.00;99.90;;;;;;4272976;27;20054;-67
2022/04/27 10:04:30;;;;;;;2.70;1.53;;;15.20;99.90;;;;;;4274372;27;20279;-57
2022/04/27 10:06:34;;;;;;;1.87;1.17;;;15.30;99.90;;;;;;4272363;27;20087;-55
2022/04/27 10:08:38;;;;;;;1.20;1.10;;;15.40;99.90;;;;;;4273764;27;20089;-55
2022/04/27 10:10:41;;;;;;;1.33;1.00;;;15.40;99.90;;;;;;4273973;27;20022;-58
2022/04/27 10:12:43;;;;;;;0.70;0.70;;;15.40;99.90;;;;;;4273255;27;20050;-52
2022/04/27 10:14:44;;;;;;;0.70;0.43;;;15.40;99.90;;;;;;4271072;27;20035;-54
2022/04/27 10:16:45;;;;;;;2.27;1.17;;;15.40;99.90;;;;;;4272571;27;20047;-69
2022/04/27 10:18:47;;;;;;;1.07;0.80;;;15.30;99.90;;;;;;4273759;27;20038;-56
2022/04/27 10:20:51;;;;;;;1.27;0.83;;;15.30;99.90;;;;;;4273028;27;20046;-52
2022/04/27 10:22:52;;;;;;;0.50;0.50;;;15.20;99.90;;;;;;4274268;27;20419;-68
2022/04/27 10:24:55;;;;;;;0.40;0.20;;;15.10;99.90;;;;;;4273311;27;20031;-60
2022/04/27 10:27:20;;;;;;;1.38;0.45;;;15.00;99.90;;;;;;4274293;27;20047;-63
2022/04/27 10:29:21;;;;;;;0.73;0.30;;;15.00;99.90;;;;;;4269189;27;20095;-65
2022/04/27 10:31:40;;;;;;;1.60;1.30;;;14.90;99.90;;;;;;4268306;27;20102;-61
2022/04/27 10:33:47;;;;;;;2.20;1.50;;;15.00;99.90;;;;;;4260293;27;20046;-57
2022/04/27 10:35:50;;;;;;;2.80;1.07;;;15.00;99.90;;;;;;4249706;27;20112;-58
2022/04/27 10:37:59;;;;;;;1.50;1.40;;;14.90;99.90;;;;;;4259012;27;20042;-60
2022/04/27 10:40:23;;;;;;;1.50;1.40;;;14.90;99.90;;;;;;4257849;27;20038;-58
2022/04/27 10:42:30;;;;;;;3.17;2.00;;;14.90;99.90;;;;;;4259140;27;20027;-58
2022/04/27 10:44:58;;;;;;;2.37;2.17;;;14.80;99.90;;;;;;4260122;27;20064;-56
2022/04/27 10:47:13;;;;;;;2.93;1.83;;;14.80;99.90;;;;;;4259010;27;20075;-62
2022/04/27 10:49:26;;;;;;;1.70;1.50;;;14.80;99.90;;;;;;4258948;27;20039;-56
2022/04/27 10:51:49;;;;;;;2.20;1.50;;;14.80;99.90;;;;;;4258983;27;20054;-61
2022/04/27 10:53:50;;;;;;;1.43;1.33;;;14.70;99.90;;;;;;4259022;27;20062;-62
2022/04/27 10:55:54;;;;;;;4.27;1.70;;;14.70;99.90;;;;;;4259237;27;20099;-62
2022/04/27 10:58:13;;;;;;;2.20;1.90;;;14.60;99.90;;;;;;4259201;27;20484;-68